createdAt,value
2023-02-14T00:02:40.726Z,2.84
2023-02-14T00:05:45.633Z,2.83
2023-02-14T00:08:53.602Z,2.85
2023-02-14T00:11:57.955Z,2.85
2023-02-14T00:15:27.780Z,2.84
2023-02-14T00:18:49.932Z,2.84
2023-02-14T00:22:00.260Z,2.84
2023-02-14T00:25:04.256Z,2.85
2023-02-14T00:28:07.103Z,2.86
2023-02-14T00:31:18.416Z,2.87
2023-02-14T00:34:25.015Z,2.87
2023-02-14T00:37:29.336Z,2.86
2023-02-14T00:40:36.000Z,2.85
2023-02-14T00:43:43.512Z,2.85
2023-02-14T00:46:49.461Z,2.83
2023-02-14T00:50:02.267Z,2.83
2023-02-14T00:53:11.563Z,2.84
2023-02-14T00:56:17.189Z,2.84
2023-02-14T00:59:21.110Z,2.82
2023-02-14T01:02:27.936Z,2.80
2023-02-14T01:05:55.549Z,2.80
2023-02-14T01:09:00.367Z,2.80
2023-02-14T01:12:05.944Z,2.77
2023-02-14T01:15:11.658Z,2.75
2023-02-14T01:18:17.873Z,2.76
2023-02-14T01:21:25.992Z,2.77
2023-02-14T01:24:28.719Z,2.79
2023-02-14T01:27:31.849Z,2.80
2023-02-14T01:30:39.132Z,2.81
2023-02-14T01:33:46.095Z,2.80
2023-02-14T01:36:49.383Z,2.79
2023-02-14T01:39:54.242Z,2.79
2023-02-14T01:43:00.611Z,2.79
2023-02-14T01:46:05.599Z,2.80
2023-02-14T01:49:29.310Z,2.83
2023-02-14T01:52:42.420Z,2.86
2023-02-14T01:55:50.892Z,2.88
2023-02-14T01:59:03.738Z,2.88
2023-02-14T02:02:11.710Z,2.89
2023-02-14T02:05:23.169Z,2.89
2023-02-14T02:08:27.542Z,2.90
2023-02-14T02:11:34.255Z,2.92
2023-02-14T02:14:40.505Z,2.92
2023-02-14T02:18:02.773Z,2.92
2023-02-14T02:21:28.411Z,2.91
2023-02-14T02:25:03.323Z,2.91
2023-02-14T02:28:44.144Z,2.89
2023-02-14T02:32:09.511Z,2.89
2023-02-14T02:35:41.542Z,2.89
2023-02-14T02:38:57.161Z,2.89
2023-02-14T02:42:06.076Z,2.89
2023-02-14T02:45:24.210Z,2.87
2023-02-14T02:48:40.430Z,2.88
2023-02-14T02:52:11.882Z,2.87
2023-02-14T02:56:00.441Z,2.88
2023-02-14T02:59:32.768Z,2.89
2023-02-14T03:03:01.784Z,2.89
2023-02-14T03:06:12.623Z,2.88
2023-02-14T03:09:21.663Z,2.86
2023-02-14T03:12:48.726Z,2.84
2023-02-14T03:16:03.196Z,2.83
2023-02-14T03:19:18.489Z,2.83
2023-02-14T03:22:54.181Z,2.84
2023-02-14T03:26:01.419Z,2.82
2023-02-14T03:29:20.960Z,2.79
2023-02-14T03:32:45.126Z,2.77
2023-02-14T03:36:21.917Z,2.72
2023-02-14T03:39:48.701Z,2.62
2023-02-14T03:43:05.045Z,2.54
2023-02-14T03:46:19.626Z,2.48
2023-02-14T03:49:31.532Z,2.42
2023-02-14T03:52:36.463Z,2.38
2023-02-14T03:56:02.041Z,2.33
2023-02-14T03:59:19.452Z,2.26
2023-02-14T04:02:38.116Z,2.20
2023-02-14T04:05:43.425Z,2.16
2023-02-14T04:08:51.634Z,2.12
2023-02-14T04:11:59.836Z,2.11
2023-02-14T04:15:03.775Z,2.09
2023-02-14T04:18:30.755Z,2.08
2023-02-14T04:21:37.041Z,2.09
2023-02-14T04:24:42.358Z,2.12
2023-02-14T04:27:49.093Z,2.13
2023-02-14T04:30:52.318Z,2.13
2023-02-14T04:34:01.260Z,2.11
2023-02-14T04:37:07.293Z,2.11
2023-02-14T04:40:17.397Z,2.11
2023-02-14T04:43:23.626Z,2.11
2023-02-14T04:46:26.591Z,2.09
2023-02-14T04:49:30.933Z,2.08
2023-02-14T04:52:37.371Z,2.07
2023-02-14T04:55:50.041Z,2.07
2023-02-14T04:58:57.846Z,2.08
2023-02-14T05:02:04.417Z,2.07
2023-02-14T05:05:10.434Z,2.03
2023-02-14T05:08:14.740Z,1.99
2023-02-14T05:11:24.732Z,1.95
2023-02-14T05:14:28.236Z,1.94
2023-02-14T05:17:31.264Z,1.94
2023-02-14T05:20:33.478Z,1.93
2023-02-14T05:23:39.597Z,1.94
2023-02-14T05:26:43.837Z,1.96
2023-02-14T05:29:47.851Z,1.96
2023-02-14T05:32:59.768Z,1.96
2023-02-14T05:36:04.431Z,1.98
2023-02-14T05:39:14.057Z,1.99
2023-02-14T05:42:17.551Z,2.00
2023-02-14T05:45:24.599Z,2.03
2023-02-14T05:48:35.493Z,2.05
2023-02-14T05:51:42.857Z,2.07
2023-02-14T05:54:47.237Z,2.10
2023-02-14T05:57:53.092Z,2.12
2023-02-14T06:01:03.578Z,2.13
2023-02-14T06:04:14.022Z,2.11
2023-02-14T06:07:17.021Z,2.10
2023-02-14T06:10:26.324Z,2.10
2023-02-14T06:13:33.426Z,2.10
2023-02-14T06:16:41.801Z,2.11
2023-02-14T06:19:49.570Z,2.14
2023-02-14T06:22:54.614Z,2.16
2023-02-14T06:26:04.460Z,2.19
2023-02-14T06:29:11.021Z,2.24
2023-02-14T06:32:21.938Z,2.29
2023-02-14T06:35:55.340Z,2.33
2023-02-14T06:39:05.260Z,2.35
2023-02-14T06:42:11.560Z,2.38
2023-02-14T06:45:20.914Z,2.40
2023-02-14T06:48:24.142Z,2.44
2023-02-14T06:51:31.264Z,2.49
2023-02-14T06:54:35.219Z,2.50
2023-02-14T06:57:40.916Z,2.53
2023-02-14T07:00:48.825Z,2.57
2023-02-14T07:04:00.720Z,2.56
2023-02-14T07:07:08.322Z,2.55
2023-02-14T07:10:17.906Z,2.54
2023-02-14T07:13:21.452Z,2.56
2023-02-14T07:16:27.196Z,2.61
2023-02-14T07:19:30.778Z,2.68
2023-02-14T07:22:44.428Z,2.74
2023-02-14T07:25:50.056Z,2.78
2023-02-14T07:28:52.810Z,2.82
2023-02-14T07:32:02.359Z,2.82
2023-02-14T07:35:05.584Z,2.82
2023-02-14T07:38:09.494Z,2.84
2023-02-14T07:41:17.162Z,2.87
2023-02-14T07:44:21.768Z,2.89
2023-02-14T07:47:27.098Z,2.95
2023-02-14T07:50:33.856Z,3.03
2023-02-14T07:53:39.222Z,3.12
2023-02-14T07:56:46.288Z,3.14
2023-02-14T07:59:55.490Z,3.11
2023-02-14T08:03:03.988Z,3.12
2023-02-14T08:06:11.714Z,3.16
2023-02-14T08:09:25.700Z,3.23
2023-02-14T08:12:57.384Z,3.22
2023-02-14T08:16:08.795Z,3.24
2023-02-14T08:19:16.813Z,3.29
2023-02-14T08:22:23.691Z,3.26
2023-02-14T08:25:28.104Z,3.25
2023-02-14T08:28:34.991Z,3.28
2023-02-14T08:32:00.909Z,3.28
2023-02-14T08:35:07.368Z,3.26
2023-02-14T08:38:14.993Z,3.28
2023-02-14T08:41:24.048Z,3.28
2023-02-14T08:44:35.110Z,3.32
2023-02-14T08:47:42.794Z,3.37
2023-02-14T08:50:58.050Z,3.39
2023-02-14T08:54:03.912Z,3.46
2023-02-14T08:57:11.157Z,3.49
2023-02-14T09:00:16.326Z,3.48
2023-02-14T09:03:23.341Z,3.46
2023-02-14T09:06:32.759Z,3.44
2023-02-14T09:09:37.438Z,3.41
2023-02-14T09:12:45.315Z,3.48
2023-02-14T09:15:48.937Z,3.64
2023-02-14T09:18:59.012Z,3.74
2023-02-14T09:22:09.155Z,3.72
2023-02-14T09:25:22.089Z,3.67
2023-02-14T09:28:32.566Z,3.65
2023-02-14T09:31:36.055Z,3.68
2023-02-14T09:34:45.309Z,3.72
2023-02-14T09:38:09.551Z,3.71
2023-02-14T09:41:28.966Z,3.67
2023-02-14T09:45:00.331Z,3.64
2023-02-14T09:48:21.050Z,3.62
2023-02-14T09:51:28.066Z,3.57
2023-02-14T09:54:44.456Z,3.54
2023-02-14T09:58:09.951Z,3.57
2023-02-14T10:01:39.122Z,3.59
2023-02-14T10:05:29.976Z,3.63
2023-02-14T10:09:34.326Z,3.66
2023-02-14T10:13:23.985Z,3.68
2023-02-14T10:16:45.869Z,3.78
2023-02-14T10:20:05.073Z,3.84
2023-02-14T10:23:35.662Z,3.86
2023-02-14T10:26:50.116Z,3.85
2023-02-14T10:29:57.514Z,3.88
2023-02-14T10:33:22.716Z,3.97
2023-02-14T10:37:07.634Z,4.12
2023-02-14T10:40:51.876Z,4.26
2023-02-14T10:44:38.371Z,4.32
2023-02-14T10:48:21.314Z,4.36
2023-02-14T10:52:02.046Z,4.33
2023-02-14T10:55:44.989Z,4.32
2023-02-14T10:58:51.629Z,4.38
2023-02-14T11:01:58.413Z,4.41
2023-02-14T11:05:06.360Z,4.51
2023-02-14T11:08:30.023Z,4.60
2023-02-14T11:11:48.206Z,4.72
2023-02-14T11:15:29.110Z,4.83
2023-02-14T11:18:43.606Z,4.91
2023-02-14T11:21:52.346Z,4.97
2023-02-14T11:25:34.945Z,5.00
2023-02-14T11:29:07.703Z,5.08
2023-02-14T11:32:29.497Z,5.31
2023-02-14T11:35:37.260Z,5.46
2023-02-14T11:38:44.069Z,5.38
2023-02-14T11:42:14.270Z,5.33
2023-02-14T11:45:37.658Z,5.62
2023-02-14T11:51:43.281Z,5.84
2023-02-14T11:54:50.750Z,5.58
2023-02-14T11:57:57.283Z,5.49
2023-02-14T12:01:08.704Z,5.39
2023-02-14T12:04:27.753Z,5.27
2023-02-14T12:07:36.655Z,5.24
2023-02-14T12:10:45.995Z,5.20
2023-02-14T12:13:58.760Z,5.18
2023-02-14T12:17:37.832Z,5.20
2023-02-14T12:20:55.629Z,5.13
2023-02-14T12:24:32.187Z,5.08
2023-02-14T12:28:03.867Z,5.18
2023-02-14T12:31:13.462Z,5.44
2023-02-14T12:34:22.085Z,5.86
2023-02-14T12:37:48.712Z,6.27
2023-02-14T12:41:32.356Z,6.25
2023-02-14T12:44:53.901Z,5.88
2023-02-14T12:48:36.816Z,5.50
2023-02-14T12:51:56.256Z,5.16
2023-02-14T12:55:34.856Z,4.95
2023-02-14T12:59:18.875Z,4.78
2023-02-14T13:02:54.849Z,4.64
2023-02-14T13:06:19.937Z,4.61
2023-02-14T13:09:42.710Z,4.65
2023-02-14T13:13:29.147Z,4.75
2023-02-14T13:16:59.534Z,4.68
2023-02-14T13:20:32.474Z,4.61
2023-02-14T13:23:45.697Z,4.59
2023-02-14T13:26:54.972Z,4.50
2023-02-14T13:30:11.925Z,4.41
2023-02-14T13:33:34.940Z,4.29
2023-02-14T13:36:50.205Z,4.16
2023-02-14T13:40:01.980Z,4.06
2023-02-14T13:43:07.093Z,4.00
2023-02-14T13:46:09.982Z,3.89
2023-02-14T13:49:31.594Z,3.81
2023-02-14T13:52:42.670Z,3.76
2023-02-14T13:55:48.780Z,3.72
2023-02-14T13:59:04.055Z,3.67
2023-02-14T14:02:30.302Z,3.67
2023-02-14T14:05:58.958Z,3.66
2023-02-14T14:09:05.113Z,3.60
2023-02-14T14:12:38.744Z,3.55
2023-02-14T14:16:33.480Z,3.53
2023-02-14T14:19:39.302Z,3.50
2023-02-14T14:23:01.157Z,3.49
2023-02-14T14:38:17.375Z,3.50
2023-02-14T14:41:29.619Z,3.47
2023-02-14T14:44:47.635Z,3.46
2023-02-14T14:48:02.916Z,3.44
2023-02-14T14:51:35.197Z,3.42
2023-02-14T14:54:44.316Z,3.33
2023-02-14T14:57:52.713Z,3.19
2023-02-14T15:00:55.693Z,3.06
2023-02-14T15:04:24.772Z,2.90
2023-02-14T15:07:36.009Z,2.74
2023-02-14T15:10:43.307Z,2.68
2023-02-14T15:13:58.425Z,2.67
2023-02-14T15:17:05.462Z,2.59
2023-02-14T15:20:22.907Z,2.46
2023-02-14T15:23:25.875Z,2.36
2023-02-14T15:26:34.953Z,2.27
2023-02-14T15:29:41.990Z,2.22
2023-02-14T15:32:46.467Z,2.19
2023-02-14T15:35:52.504Z,2.14
2023-02-14T15:39:06.246Z,2.09
2023-02-14T15:42:31.883Z,2.03
2023-02-14T15:45:40.632Z,1.98
2023-02-14T15:48:48.235Z,1.93
2023-02-14T15:51:56.563Z,1.89
2023-02-14T15:55:05.420Z,1.87
2023-02-14T15:58:35.026Z,1.87
2023-02-14T16:01:49.553Z,1.86
2023-02-14T16:04:57.830Z,1.84
2023-02-14T16:08:40.842Z,1.85
2023-02-14T16:11:48.608Z,1.86
2023-02-14T16:15:24.485Z,1.87
2023-02-14T16:18:47.149Z,1.84
2023-02-14T16:22:02.738Z,1.83
2023-02-14T16:25:09.296Z,1.79
2023-02-14T16:28:20.098Z,1.77
2023-02-14T16:31:24.853Z,1.72
2023-02-14T16:34:38.110Z,1.67
2023-02-14T16:37:51.887Z,1.62
2023-02-14T16:41:06.711Z,1.58
2023-02-14T16:44:14.491Z,1.53
2023-02-14T16:47:23.122Z,1.49
2023-02-14T16:50:27.492Z,1.47
2023-02-14T16:53:34.261Z,1.46
2023-02-14T16:56:48.155Z,1.46
2023-02-14T16:59:56.218Z,1.45
2023-02-14T17:03:12.122Z,1.43
2023-02-14T17:06:20.420Z,1.41
2023-02-14T17:09:33.103Z,1.39
2023-02-14T17:12:43.907Z,1.36
2023-02-14T17:15:52.563Z,1.33
2023-02-14T17:19:22.576Z,1.29
2023-02-14T17:22:32.817Z,1.25
2023-02-14T17:25:35.821Z,1.25
2023-02-14T17:28:38.553Z,1.23
2023-02-14T17:31:43.237Z,1.20
2023-02-14T17:34:48.848Z,1.15
2023-02-14T17:37:51.894Z,1.08
2023-02-14T17:40:55.893Z,1.00
2023-02-14T17:44:03.854Z,0.93
2023-02-14T17:47:09.580Z,0.87
2023-02-14T17:50:17.681Z,0.83
2023-02-14T17:53:21.847Z,0.76
2023-02-14T17:56:25.406Z,0.69
2023-02-14T17:59:29.522Z,0.64
2023-02-14T18:02:32.322Z,0.59
2023-02-14T18:05:42.759Z,0.57
2023-02-14T18:08:50.901Z,0.55
2023-02-14T18:11:59.874Z,0.54
2023-02-14T18:15:05.466Z,0.55
2023-02-14T18:18:11.487Z,0.60
2023-02-14T18:21:22.901Z,0.64
2023-02-14T18:24:30.466Z,0.67
2023-02-14T18:27:41.692Z,0.67
2023-02-14T18:30:47.674Z,0.65
2023-02-14T18:33:56.671Z,0.67
2023-02-14T18:37:03.796Z,0.68
2023-02-14T18:40:12.509Z,0.69
2023-02-14T18:43:20.955Z,0.68
2023-02-14T18:46:29.440Z,0.70
2023-02-14T18:49:33.560Z,0.73
2023-02-14T18:52:47.614Z,0.74
2023-02-14T18:55:55.087Z,0.75
2023-02-14T18:59:09.538Z,0.75
2023-02-14T19:02:16.175Z,0.76
2023-02-14T19:05:22.190Z,0.76
2023-02-14T19:08:32.664Z,0.75
2023-02-14T19:11:38.809Z,0.74
2023-02-14T19:14:47.243Z,0.74
2023-02-14T19:17:54.469Z,0.73
2023-02-14T19:21:02.518Z,0.74
2023-02-14T19:24:08.725Z,0.75
2023-02-14T19:27:13.725Z,0.75
2023-02-14T19:30:17.694Z,0.75
2023-02-14T19:33:25.865Z,0.78
2023-02-14T19:36:29.606Z,0.80
2023-02-14T19:39:37.374Z,0.81
2023-02-14T19:42:40.902Z,0.81
2023-02-14T19:45:46.395Z,0.83
2023-02-14T19:48:51.398Z,0.84
2023-02-14T19:52:06.118Z,0.86
2023-02-14T19:55:20.887Z,0.87
2023-02-14T19:58:26.476Z,0.86
2023-02-14T20:01:46.228Z,0.86
2023-02-14T20:05:04.075Z,0.86
2023-02-14T20:08:57.909Z,0.88
2023-02-14T20:12:15.721Z,0.87
2023-02-14T20:15:36.017Z,0.86
2023-02-14T20:18:46.526Z,0.87
2023-02-14T20:21:57.817Z,0.90
2023-02-14T20:25:09.471Z,0.93
2023-02-14T20:28:21.076Z,0.95
2023-02-14T20:31:33.627Z,0.98
2023-02-14T20:34:57.917Z,0.99
2023-02-14T20:38:23.319Z,1.00
2023-02-14T20:41:36.992Z,1.00
2023-02-14T20:44:44.960Z,1.01
2023-02-14T20:47:51.648Z,1.01
2023-02-14T20:50:55.756Z,1.02
2023-02-14T20:54:03.360Z,1.00
2023-02-14T20:57:08.750Z,0.98
2023-02-14T21:00:16.608Z,0.93
2023-02-14T21:03:28.659Z,0.89
2023-02-14T21:06:51.747Z,0.86
2023-02-14T21:10:02.918Z,0.82
2023-02-14T21:13:13.954Z,0.79
2023-02-14T21:16:25.140Z,0.75
2023-02-14T21:19:34.101Z,0.70
2023-02-14T21:22:44.680Z,0.65
2023-02-14T21:25:48.854Z,0.60
2023-02-14T21:28:52.930Z,0.57
2023-02-14T21:31:55.136Z,0.55
2023-02-14T21:35:01.512Z,0.53
2023-02-14T21:38:03.599Z,0.52
2023-02-14T21:41:15.714Z,0.49
2023-02-14T21:44:39.326Z,0.46
2023-02-14T21:48:06.449Z,0.41
2023-02-14T21:51:21.807Z,0.39
2023-02-14T21:54:27.572Z,0.36
2023-02-14T21:57:31.989Z,0.35
2023-02-14T22:00:43.527Z,0.31
2023-02-14T22:03:47.696Z,0.25
2023-02-14T22:06:56.610Z,0.21
2023-02-14T22:10:02.047Z,0.17
2023-02-14T22:13:08.294Z,0.13
2023-02-14T22:16:18.495Z,0.09
2023-02-14T22:19:22.344Z,0.05
2023-02-14T22:22:26.136Z,0.00
2023-02-14T22:25:29.564Z,-0.04
2023-02-14T22:28:33.249Z,-0.06
2023-02-14T22:31:43.712Z,-0.07
2023-02-14T22:34:48.303Z,-0.09
2023-02-14T22:37:51.122Z,-0.09
2023-02-14T22:40:53.434Z,-0.09
2023-02-14T22:43:59.332Z,-0.07
2023-02-14T22:47:12.788Z,-0.03
2023-02-14T22:50:17.231Z,0.01
2023-02-14T22:53:20.976Z,0.05
2023-02-14T22:56:27.179Z,0.08
2023-02-14T22:59:32.280Z,0.10
2023-02-14T23:02:41.795Z,0.13
2023-02-14T23:05:45.098Z,0.16
2023-02-14T23:08:48.881Z,0.20
2023-02-14T23:11:58.795Z,0.23
2023-02-14T23:15:39.038Z,0.25
2023-02-14T23:19:03.348Z,0.25
2023-02-14T23:22:19.014Z,0.23
2023-02-14T23:25:22.087Z,0.23
2023-02-14T23:28:29.516Z,0.25
2023-02-14T23:31:31.561Z,0.28
2023-02-14T23:34:36.978Z,0.31
2023-02-14T23:37:39.708Z,0.34
2023-02-14T23:41:01.608Z,0.38
2023-02-14T23:44:05.575Z,0.41
2023-02-14T23:47:12.323Z,0.43
2023-02-14T23:50:16.765Z,0.45
2023-02-14T23:53:21.986Z,0.47
2023-02-14T23:56:27.373Z,0.48
2023-02-14T23:59:37.339Z,0.49
